sensor_id;sensor_type;location;lat;lon;timestamp;P1;durP1;ratioP1;P2;durP2;ratioP2
9914;SDS011;4996;48.746;9.174;2023-02-24T00:01:48;42.40;;;21.17;;
9914;SDS011;4996;48.746;9.174;2023-02-24T00:04:20;36.60;;;18.70;;
9914;SDS011;4996;48.746;9.174;2023-02-24T00:06:46;41.33;;;19.67;;
9914;SDS011;4996;48.746;9.174;2023-02-24T00:09:13;29.50;;;17.97;;
9914;SDS011;4996;48.746;9.174;2023-02-24T00:11:42;31.03;;;17.23;;
9914;SDS011;4996;48.746;9.174;2023-02-24T00:14:14;34.73;;;19.00;;
9914;SDS011;4996;48.746;9.174;2023-02-24T00:16:41;33.80;;;19.67;;
9914;SDS011;4996;48.746;9.174;2023-02-24T00:19:09;39.10;;;20.33;;
9914;SDS011;4996;48.746;9.174;2023-02-24T00:21:37;33.47;;;18.20;;
9914;SDS011;4996;48.746;9.174;2023-02-24T00:24:03;34.67;;;17.53;;
9914;SDS011;4996;48.746;9.174;2023-02-24T00:26:29;35.07;;;18.23;;
9914;SDS011;4996;48.746;9.174;2023-02-24T00:28:58;29.90;;;17.10;;
9914;SDS011;4996;48.746;9.174;2023-02-24T00:31:27;42.73;;;18.17;;
9914;SDS011;4996;48.746;9.174;2023-02-24T00:33:57;32.07;;;17.43;;
9914;SDS011;4996;48.746;9.174;2023-02-24T00:36:24;33.93;;;19.57;;
9914;SDS011;4996;48.746;9.174;2023-02-24T00:41:24;34.60;;;17.20;;
9914;SDS011;4996;48.746;9.174;2023-02-24T00:44:02;37.13;;;19.20;;
9914;SDS011;4996;48.746;9.174;2023-02-24T00:46:30;27.50;;;16.80;;
9914;SDS011;4996;48.746;9.174;2023-02-24T00:48:59;36.77;;;18.07;;
9914;SDS011;4996;48.746;9.174;2023-02-24T00:51:30;38.90;;;19.90;;
9914;SDS011;4996;48.746;9.174;2023-02-24T00:54:00;34.47;;;18.60;;
9914;SDS011;4996;48.746;9.174;2023-02-24T00:56:26;35.27;;;18.63;;
9914;SDS011;4996;48.746;9.174;2023-02-24T00:58:53;30.73;;;16.87;;
9914;SDS011;4996;48.746;9.174;2023-02-24T01:01:21;31.37;;;17.67;;
9914;SDS011;4996;48.746;9.174;2023-02-24T01:03:50;32.90;;;19.37;;
9914;SDS011;4996;48.746;9.174;2023-02-24T01:06:19;36.40;;;18.37;;
9914;SDS011;4996;48.746;9.174;2023-02-24T01:08:49;34.40;;;18.10;;
9914;SDS011;4996;48.746;9.174;2023-02-24T01:11:16;33.53;;;19.03;;
9914;SDS011;4996;48.746;9.174;2023-02-24T01:14:16;32.33;;;17.27;;
9914;SDS011;4996;48.746;9.174;2023-02-24T01:16:44;38.03;;;19.70;;
9914;SDS011;4996;48.746;9.174;2023-02-24T01:19:14;35.47;;;18.93;;
9914;SDS011;4996;48.746;9.174;2023-02-24T01:21:40;33.57;;;17.17;;
9914;SDS011;4996;48.746;9.174;2023-02-24T01:24:06;34.10;;;18.60;;
9914;SDS011;4996;48.746;9.174;2023-02-24T01:26:34;29.43;;;17.87;;
9914;SDS011;4996;48.746;9.174;2023-02-24T01:29:00;33.07;;;19.47;;
9914;SDS011;4996;48.746;9.174;2023-02-24T01:31:28;38.13;;;18.57;;
9914;SDS011;4996;48.746;9.174;2023-02-24T01:33:53;31.90;;;19.07;;
9914;SDS011;4996;48.746;9.174;2023-02-24T01:36:23;33.37;;;18.93;;
9914;SDS011;4996;48.746;9.174;2023-02-24T01:38:49;33.03;;;18.00;;
9914;SDS011;4996;48.746;9.174;2023-02-24T01:41:18;31.90;;;20.63;;
9914;SDS011;4996;48.746;9.174;2023-02-24T01:46:22;29.30;;;18.37;;
9914;SDS011;4996;48.746;9.174;2023-02-24T01:48:51;27.47;;;16.77;;
9914;SDS011;4996;48.746;9.174;2023-02-24T01:51:20;30.87;;;18.90;;
9914;SDS011;4996;48.746;9.174;2023-02-24T01:53:45;31.93;;;18.10;;
9914;SDS011;4996;48.746;9.174;2023-02-24T01:56:11;31.67;;;17.23;;
9914;SDS011;4996;48.746;9.174;2023-02-24T01:58:38;32.73;;;17.70;;
9914;SDS011;4996;48.746;9.174;2023-02-24T02:01:04;28.43;;;17.30;;
9914;SDS011;4996;48.746;9.174;2023-02-24T02:03:34;32.80;;;17.40;;
9914;SDS011;4996;48.746;9.174;2023-02-24T02:06:03;31.63;;;17.93;;
9914;SDS011;4996;48.746;9.174;2023-02-24T02:08:35;30.60;;;17.10;;
9914;SDS011;4996;48.746;9.174;2023-02-24T02:11:04;28.63;;;16.57;;
9914;SDS011;4996;48.746;9.174;2023-02-24T02:13:32;30.23;;;16.23;;
9914;SDS011;4996;48.746;9.174;2023-02-24T02:16:22;28.27;;;17.53;;
9914;SDS011;4996;48.746;9.174;2023-02-24T02:19:13;30.70;;;18.40;;
9914;SDS011;4996;48.746;9.174;2023-02-24T02:22:03;29.23;;;17.40;;
9914;SDS011;4996;48.746;9.174;2023-02-24T02:33:22;33.27;;;19.47;;
9914;SDS011;4996;48.746;9.174;2023-02-24T02:36:18;34.73;;;18.20;;
9914;SDS011;4996;48.746;9.174;2023-02-24T02:44:10;30.37;;;17.67;;
9914;SDS011;4996;48.746;9.174;2023-02-24T02:46:45;42.20;;;19.00;;
9914;SDS011;4996;48.746;9.174;2023-02-24T02:49:26;32.50;;;19.50;;
9914;SDS011;4996;48.746;9.174;2023-02-24T02:52:00;30.23;;;17.93;;
9914;SDS011;4996;48.746;9.174;2023-02-24T02:54:36;34.03;;;18.47;;
9914;SDS011;4996;48.746;9.174;2023-02-24T02:57:12;33.97;;;20.13;;
9914;SDS011;4996;48.746;9.174;2023-02-24T02:59:54;31.33;;;19.33;;
9914;SDS011;4996;48.746;9.174;2023-02-24T03:02:51;35.30;;;18.90;;
9914;SDS011;4996;48.746;9.174;2023-02-24T03:05:21;39.67;;;21.03;;
9914;SDS011;4996;48.746;9.174;2023-02-24T03:07:53;28.30;;;17.20;;
9914;SDS011;4996;48.746;9.174;2023-02-24T03:10:24;36.60;;;18.80;;
9914;SDS011;4996;48.746;9.174;2023-02-24T03:12:53;36.87;;;21.33;;
9914;SDS011;4996;48.746;9.174;2023-02-24T03:15:22;36.13;;;19.97;;
9914;SDS011;4996;48.746;9.174;2023-02-24T03:17:51;38.50;;;20.17;;
9914;SDS011;4996;48.746;9.174;2023-02-24T03:20:22;42.53;;;21.10;;
9914;SDS011;4996;48.746;9.174;2023-02-24T03:23:29;35.93;;;18.07;;
9914;SDS011;4996;48.746;9.174;2023-02-24T03:25:57;36.80;;;18.23;;
9914;SDS011;4996;48.746;9.174;2023-02-24T03:28:42;37.77;;;20.47;;
9914;SDS011;4996;48.746;9.174;2023-02-24T03:31:36;41.87;;;20.57;;
9914;SDS011;4996;48.746;9.174;2023-02-24T03:36:38;39.30;;;21.57;;
9914;SDS011;4996;48.746;9.174;2023-02-24T03:39:03;39.53;;;23.47;;
9914;SDS011;4996;48.746;9.174;2023-02-24T03:41:34;33.80;;;20.77;;
9914;SDS011;4996;48.746;9.174;2023-02-24T03:44:05;41.10;;;22.50;;
9914;SDS011;4996;48.746;9.174;2023-02-24T03:46:34;33.30;;;19.33;;
9914;SDS011;4996;48.746;9.174;2023-02-24T03:49:02;30.07;;;18.27;;
9914;SDS011;4996;48.746;9.174;2023-02-24T03:51:34;36.23;;;20.77;;
9914;SDS011;4996;48.746;9.174;2023-02-24T03:54:02;37.13;;;21.30;;
9914;SDS011;4996;48.746;9.174;2023-02-24T04:02:04;34.07;;;20.30;;
9914;SDS011;4996;48.746;9.174;2023-02-24T04:04:51;38.73;;;22.47;;
9914;SDS011;4996;48.746;9.174;2023-02-24T04:07:30;46.97;;;23.00;;
9914;SDS011;4996;48.746;9.174;2023-02-24T04:12:54;43.20;;;21.87;;
9914;SDS011;4996;48.746;9.174;2023-02-24T04:15:36;36.53;;;20.60;;
9914;SDS011;4996;48.746;9.174;2023-02-24T04:18:17;41.27;;;22.47;;
9914;SDS011;4996;48.746;9.174;2023-02-24T04:20:51;44.03;;;20.50;;
9914;SDS011;4996;48.746;9.174;2023-02-24T04:23:19;39.80;;;20.80;;
9914;SDS011;4996;48.746;9.174;2023-02-24T04:25:49;39.90;;;21.30;;
9914;SDS011;4996;48.746;9.174;2023-02-24T04:28:16;45.63;;;21.87;;
9914;SDS011;4996;48.746;9.174;2023-02-24T04:30:46;39.13;;;20.03;;
9914;SDS011;4996;48.746;9.174;2023-02-24T04:33:18;35.97;;;21.47;;
9914;SDS011;4996;48.746;9.174;2023-02-24T04:35:44;36.40;;;21.97;;
9914;SDS011;4996;48.746;9.174;2023-02-24T04:38:11;33.73;;;20.50;;
9914;SDS011;4996;48.746;9.174;2023-02-24T04:40:36;36.23;;;20.90;;
9914;SDS011;4996;48.746;9.174;2023-02-24T04:43:04;42.00;;;22.40;;
9914;SDS011;4996;48.746;9.174;2023-02-24T04:45:31;78.00;;;24.83;;
9914;SDS011;4996;48.746;9.174;2023-02-24T04:47:58;47.80;;;23.17;;
9914;SDS011;4996;48.746;9.174;2023-02-24T04:50:26;48.63;;;24.00;;
9914;SDS011;4996;48.746;9.174;2023-02-24T04:53:01;44.23;;;22.97;;
9914;SDS011;4996;48.746;9.174;2023-02-24T04:55:33;47.57;;;26.10;;
9914;SDS011;4996;48.746;9.174;2023-02-24T04:58:03;54.77;;;23.00;;
9914;SDS011;4996;48.746;9.174;2023-02-24T05:00:29;52.67;;;24.90;;
9914;SDS011;4996;48.746;9.174;2023-02-24T05:03:00;52.17;;;24.97;;
9914;SDS011;4996;48.746;9.174;2023-02-24T05:05:27;55.70;;;25.20;;
9914;SDS011;4996;48.746;9.174;2023-02-24T05:07:54;50.97;;;23.97;;
9914;SDS011;4996;48.746;9.174;2023-02-24T05:10:22;45.93;;;23.90;;
9914;SDS011;4996;48.746;9.174;2023-02-24T05:12:52;61.00;;;26.70;;
9914;SDS011;4996;48.746;9.174;2023-02-24T05:15:19;58.37;;;26.60;;
9914;SDS011;4996;48.746;9.174;2023-02-24T05:17:44;56.60;;;23.77;;
9914;SDS011;4996;48.746;9.174;2023-02-24T05:20:10;59.63;;;26.27;;
9914;SDS011;4996;48.746;9.174;2023-02-24T05:22:54;56.27;;;26.30;;
9914;SDS011;4996;48.746;9.174;2023-02-24T05:25:20;58.87;;;24.40;;
9914;SDS011;4996;48.746;9.174;2023-02-24T05:27:46;56.57;;;23.97;;
9914;SDS011;4996;48.746;9.174;2023-02-24T05:30:12;52.17;;;24.40;;
9914;SDS011;4996;48.746;9.174;2023-02-24T05:32:38;56.97;;;25.23;;
9914;SDS011;4996;48.746;9.174;2023-02-24T05:35:04;59.07;;;26.13;;
9914;SDS011;4996;48.746;9.174;2023-02-24T05:37:30;64.07;;;25.27;;
9914;SDS011;4996;48.746;9.174;2023-02-24T05:40:00;56.10;;;23.40;;
9914;SDS011;4996;48.746;9.174;2023-02-24T05:42:26;62.17;;;25.90;;
9914;SDS011;4996;48.746;9.174;2023-02-24T05:44:51;59.90;;;25.37;;
9914;SDS011;4996;48.746;9.174;2023-02-24T05:47:17;64.07;;;24.27;;
9914;SDS011;4996;48.746;9.174;2023-02-24T05:49:44;62.60;;;26.47;;
9914;SDS011;4996;48.746;9.174;2023-02-24T05:52:11;52.37;;;24.10;;
9914;SDS011;4996;48.746;9.174;2023-02-24T05:54:39;60.77;;;25.13;;
9914;SDS011;4996;48.746;9.174;2023-02-24T05:57:07;59.10;;;25.93;;
9914;SDS011;4996;48.746;9.174;2023-02-24T05:59:39;60.27;;;26.20;;
9914;SDS011;4996;48.746;9.174;2023-02-24T06:02:08;60.47;;;24.67;;
9914;SDS011;4996;48.746;9.174;2023-02-24T06:04:41;63.77;;;24.40;;
9914;SDS011;4996;48.746;9.174;2023-02-24T06:07:21;53.13;;;24.60;;
9914;SDS011;4996;48.746;9.174;2023-02-24T06:09:49;52.30;;;24.37;;
9914;SDS011;4996;48.746;9.174;2023-02-24T06:12:23;54.80;;;25.30;;
9914;SDS011;4996;48.746;9.174;2023-02-24T06:14:51;63.80;;;25.17;;
9914;SDS011;4996;48.746;9.174;2023-02-24T06:17:17;67.27;;;27.50;;
9914;SDS011;4996;48.746;9.174;2023-02-24T06:19:44;58.87;;;25.63;;
9914;SDS011;4996;48.746;9.174;2023-02-24T06:22:13;51.87;;;25.00;;
9914;SDS011;4996;48.746;9.174;2023-02-24T06:24:40;56.30;;;24.70;;
9914;SDS011;4996;48.746;9.174;2023-02-24T06:27:08;58.63;;;25.40;;
9914;SDS011;4996;48.746;9.174;2023-02-24T06:29:45;68.17;;;27.47;;
9914;SDS011;4996;48.746;9.174;2023-02-24T06:32:13;66.87;;;25.53;;
9914;SDS011;4996;48.746;9.174;2023-02-24T06:34:39;60.97;;;26.37;;
9914;SDS011;4996;48.746;9.174;2023-02-24T06:37:06;57.77;;;24.30;;
9914;SDS011;4996;48.746;9.174;2023-02-24T06:39:34;59.57;;;25.50;;
9914;SDS011;4996;48.746;9.174;2023-02-24T06:42:00;71.93;;;26.50;;
9914;SDS011;4996;48.746;9.174;2023-02-24T06:44:29;56.27;;;27.03;;
9914;SDS011;4996;48.746;9.174;2023-02-24T06:46:56;59.27;;;27.67;;
9914;SDS011;4996;48.746;9.174;2023-02-24T06:49:22;61.37;;;26.90;;
9914;SDS011;4996;48.746;9.174;2023-02-24T06:51:49;63.07;;;27.27;;
9914;SDS011;4996;48.746;9.174;2023-02-24T06:54:15;65.00;;;28.73;;
9914;SDS011;4996;48.746;9.174;2023-02-24T06:56:41;60.30;;;27.20;;
9914;SDS011;4996;48.746;9.174;2023-02-24T06:59:07;68.30;;;27.50;;
9914;SDS011;4996;48.746;9.174;2023-02-24T07:01:37;59.77;;;27.07;;
9914;SDS011;4996;48.746;9.174;2023-02-24T07:04:09;59.33;;;25.40;;
9914;SDS011;4996;48.746;9.174;2023-02-24T07:06:36;63.73;;;25.43;;
9914;SDS011;4996;48.746;9.174;2023-02-24T07:09:06;59.20;;;26.73;;
9914;SDS011;4996;48.746;9.174;2023-02-24T07:11:34;62.30;;;25.90;;
9914;SDS011;4996;48.746;9.174;2023-02-24T07:14:01;68.27;;;26.50;;
9914;SDS011;4996;48.746;9.174;2023-02-24T07:16:29;58.57;;;26.57;;
9914;SDS011;4996;48.746;9.174;2023-02-24T07:18:58;83.47;;;28.70;;
9914;SDS011;4996;48.746;9.174;2023-02-24T07:21:27;71.63;;;26.67;;
9914;SDS011;4996;48.746;9.174;2023-02-24T07:24:10;75.27;;;28.77;;
9914;SDS011;4996;48.746;9.174;2023-02-24T07:26:37;54.70;;;25.40;;
9914;SDS011;4996;48.746;9.174;2023-02-24T07:29:06;63.70;;;25.03;;
9914;SDS011;4996;48.746;9.174;2023-02-24T07:31:35;70.57;;;28.33;;
9914;SDS011;4996;48.746;9.174;2023-02-24T07:34:01;56.50;;;24.47;;
9914;SDS011;4996;48.746;9.174;2023-02-24T07:36:27;76.60;;;27.63;;
9914;SDS011;4996;48.746;9.174;2023-02-24T07:38:54;59.33;;;24.70;;
9914;SDS011;4996;48.746;9.174;2023-02-24T07:41:25;60.60;;;26.07;;
9914;SDS011;4996;48.746;9.174;2023-02-24T07:43:52;73.60;;;28.57;;
9914;SDS011;4996;48.746;9.174;2023-02-24T07:46:20;62.60;;;25.23;;
9914;SDS011;4996;48.746;9.174;2023-02-24T07:48:50;57.90;;;25.20;;
9914;SDS011;4996;48.746;9.174;2023-02-24T07:51:20;78.10;;;26.67;;
9914;SDS011;4996;48.746;9.174;2023-02-24T07:53:51;62.37;;;26.43;;
9914;SDS011;4996;48.746;9.174;2023-02-24T07:56:19;73.60;;;27.67;;
9914;SDS011;4996;48.746;9.174;2023-02-24T07:58:51;58.50;;;25.97;;
9914;SDS011;4996;48.746;9.174;2023-02-24T08:01:32;59.13;;;24.40;;
9914;SDS011;4996;48.746;9.174;2023-02-24T08:04:13;63.73;;;27.57;;
9914;SDS011;4996;48.746;9.174;2023-02-24T08:06:40;67.27;;;26.30;;
9914;SDS011;4996;48.746;9.174;2023-02-24T08:09:15;64.57;;;25.97;;
9914;SDS011;4996;48.746;9.174;2023-02-24T08:14:10;72.30;;;27.67;;
9914;SDS011;4996;48.746;9.174;2023-02-24T08:16:42;59.83;;;24.97;;
9914;SDS011;4996;48.746;9.174;2023-02-24T08:19:10;64.53;;;26.20;;
9914;SDS011;4996;48.746;9.174;2023-02-24T08:21:41;63.67;;;26.00;;
9914;SDS011;4996;48.746;9.174;2023-02-24T08:24:15;61.60;;;26.10;;
9914;SDS011;4996;48.746;9.174;2023-02-24T08:26:52;57.73;;;22.60;;
9914;SDS011;4996;48.746;9.174;2023-02-24T08:29:28;60.07;;;24.07;;
9914;SDS011;4996;48.746;9.174;2023-02-24T08:31:55;55.83;;;23.47;;
9914;SDS011;4996;48.746;9.174;2023-02-24T08:34:22;68.00;;;24.30;;
9914;SDS011;4996;48.746;9.174;2023-02-24T08:36:51;61.20;;;26.23;;
9914;SDS011;4996;48.746;9.174;2023-02-24T08:39:19;56.77;;;26.57;;
9914;SDS011;4996;48.746;9.174;2023-02-24T08:41:46;61.17;;;23.40;;
9914;SDS011;4996;48.746;9.174;2023-02-24T08:44:15;44.77;;;19.60;;
9914;SDS011;4996;48.746;9.174;2023-02-24T08:46:44;55.70;;;26.30;;
9914;SDS011;4996;48.746;9.174;2023-02-24T08:49:16;49.40;;;24.63;;
9914;SDS011;4996;48.746;9.174;2023-02-24T08:51:46;51.87;;;23.90;;
9914;SDS011;4996;48.746;9.174;2023-02-24T08:54:20;56.37;;;25.53;;
9914;SDS011;4996;48.746;9.174;2023-02-24T08:56:55;54.23;;;24.17;;
9914;SDS011;4996;48.746;9.174;2023-02-24T08:59:31;48.10;;;24.03;;
9914;SDS011;4996;48.746;9.174;2023-02-24T09:02:17;41.83;;;20.57;;
9914;SDS011;4996;48.746;9.174;2023-02-24T09:07:20;39.50;;;19.70;;
9914;SDS011;4996;48.746;9.174;2023-02-24T09:09:48;39.23;;;21.17;;
9914;SDS011;4996;48.746;9.174;2023-02-24T09:12:13;37.90;;;19.90;;
9914;SDS011;4996;48.746;9.174;2023-02-24T09:14:52;29.53;;;16.37;;
9914;SDS011;4996;48.746;9.174;2023-02-24T09:17:31;31.20;;;16.27;;
9914;SDS011;4996;48.746;9.174;2023-02-24T09:20:22;27.00;;;13.63;;
9914;SDS011;4996;48.746;9.174;2023-02-24T09:22:54;30.57;;;14.70;;
9914;SDS011;4996;48.746;9.174;2023-02-24T09:25:22;28.57;;;15.00;;
9914;SDS011;4996;48.746;9.174;2023-02-24T09:28:05;27.40;;;12.30;;
9914;SDS011;4996;48.746;9.174;2023-02-24T09:30:37;24.93;;;11.40;;
9914;SDS011;4996;48.746;9.174;2023-02-24T09:33:19;27.83;;;14.50;;
9914;SDS011;4996;48.746;9.174;2023-02-24T09:38:45;27.90;;;11.10;;
9914;SDS011;4996;48.746;9.174;2023-02-24T09:44:46;18.20;;;10.17;;
9914;SDS011;4996;48.746;9.174;2023-02-24T09:47:18;14.50;;;8.57;;
9914;SDS011;4996;48.746;9.174;2023-02-24T09:52:38;16.73;;;9.50;;
9914;SDS011;4996;48.746;9.174;2023-02-24T09:55:30;29.03;;;11.30;;
9914;SDS011;4996;48.746;9.174;2023-02-24T09:58:05;18.10;;;9.73;;
9914;SDS011;4996;48.746;9.174;2023-02-24T10:00:57;21.23;;;9.73;;
9914;SDS011;4996;48.746;9.174;2023-02-24T10:06:28;19.90;;;8.20;;
9914;SDS011;4996;48.746;9.174;2023-02-24T10:11:49;13.87;;;8.77;;
9914;SDS011;4996;48.746;9.174;2023-02-24T10:14:21;16.00;;;8.37;;
9914;SDS011;4996;48.746;9.174;2023-02-24T10:16:53;18.00;;;9.60;;
9914;SDS011;4996;48.746;9.174;2023-02-24T10:19:39;18.13;;;9.90;;
9914;SDS011;4996;48.746;9.174;2023-02-24T10:22:16;12.27;;;7.00;;
9914;SDS011;4996;48.746;9.174;2023-02-24T10:24:52;15.30;;;7.23;;
9914;SDS011;4996;48.746;9.174;2023-02-24T10:27:46;11.30;;;7.40;;
9914;SDS011;4996;48.746;9.174;2023-02-24T10:30:37;17.80;;;7.57;;
9914;SDS011;4996;48.746;9.174;2023-02-24T10:33:33;17.40;;;8.03;;
9914;SDS011;4996;48.746;9.174;2023-02-24T10:36:10;17.60;;;6.80;;
9914;SDS011;4996;48.746;9.174;2023-02-24T10:38:41;15.60;;;6.00;;
9914;SDS011;4996;48.746;9.174;2023-02-24T10:41:11;21.80;;;10.70;;
9914;SDS011;4996;48.746;9.174;2023-02-24T10:43:38;21.90;;;11.03;;
9914;SDS011;4996;48.746;9.174;2023-02-24T10:48:59;28.27;;;12.50;;
9914;SDS011;4996;48.746;9.174;2023-02-24T10:51:35;29.00;;;12.03;;
9914;SDS011;4996;48.746;9.174;2023-02-24T10:54:24;25.47;;;12.27;;
9914;SDS011;4996;48.746;9.174;2023-02-24T10:57:07;18.60;;;9.53;;
9914;SDS011;4996;48.746;9.174;2023-02-24T10:59:58;26.87;;;11.80;;
9914;SDS011;4996;48.746;9.174;2023-02-24T11:02:52;22.23;;;10.70;;
9914;SDS011;4996;48.746;9.174;2023-02-24T11:05:38;22.43;;;11.70;;
9914;SDS011;4996;48.746;9.174;2023-02-24T11:08:20;23.87;;;11.43;;
9914;SDS011;4996;48.746;9.174;2023-02-24T11:14:02;19.20;;;11.00;;
9914;SDS011;4996;48.746;9.174;2023-02-24T11:16:47;18.23;;;10.33;;
9914;SDS011;4996;48.746;9.174;2023-02-24T11:19:47;25.10;;;12.80;;
9914;SDS011;4996;48.746;9.174;2023-02-24T11:22:22;29.00;;;13.97;;
9914;SDS011;4996;48.746;9.174;2023-02-24T11:24:51;38.97;;;14.93;;
9914;SDS011;4996;48.746;9.174;2023-02-24T11:27:17;40.73;;;15.90;;
9914;SDS011;4996;48.746;9.174;2023-02-24T11:33:07;31.67;;;13.00;;
9914;SDS011;4996;48.746;9.174;2023-02-24T11:38:18;37.63;;;15.20;;
9914;SDS011;4996;48.746;9.174;2023-02-24T11:41:12;39.43;;;14.57;;
9914;SDS011;4996;48.746;9.174;2023-02-24T11:44:09;44.00;;;15.40;;
9914;SDS011;4996;48.746;9.174;2023-02-24T11:47:02;33.43;;;14.97;;
9914;SDS011;4996;48.746;9.174;2023-02-24T11:52:08;29.50;;;12.50;;
9914;SDS011;4996;48.746;9.174;2023-02-24T11:54:39;32.30;;;11.50;;
9914;SDS011;4996;48.746;9.174;2023-02-24T11:57:12;24.70;;;11.80;;
9914;SDS011;4996;48.746;9.174;2023-02-24T12:00:05;25.10;;;12.40;;
9914;SDS011;4996;48.746;9.174;2023-02-24T12:02:32;24.13;;;10.30;;
9914;SDS011;4996;48.746;9.174;2023-02-24T12:07:39;25.30;;;11.17;;
9914;SDS011;4996;48.746;9.174;2023-02-24T12:10:18;32.00;;;11.90;;
9914;SDS011;4996;48.746;9.174;2023-02-24T12:12:47;23.50;;;10.30;;
9914;SDS011;4996;48.746;9.174;2023-02-24T12:15:28;22.77;;;10.57;;
9914;SDS011;4996;48.746;9.174;2023-02-24T12:21:03;21.37;;;10.77;;
9914;SDS011;4996;48.746;9.174;2023-02-24T12:23:38;24.07;;;10.17;;
9914;SDS011;4996;48.746;9.174;2023-02-24T12:26:14;38.30;;;19.43;;
9914;SDS011;4996;48.746;9.174;2023-02-24T12:31:58;17.00;;;10.53;;
9914;SDS011;4996;48.746;9.174;2023-02-24T12:42:27;24.17;;;8.70;;
9914;SDS011;4996;48.746;9.174;2023-02-24T12:45:15;19.27;;;8.17;;
9914;SDS011;4996;48.746;9.174;2023-02-24T12:50:59;17.10;;;7.67;;
9914;SDS011;4996;48.746;9.174;2023-02-24T12:56:17;17.30;;;7.60;;
9914;SDS011;4996;48.746;9.174;2023-02-24T12:58:50;15.30;;;6.87;;
9914;SDS011;4996;48.746;9.174;2023-02-24T13:01:26;18.00;;;6.70;;
9914;SDS011;4996;48.746;9.174;2023-02-24T13:15:02;25.87;;;9.30;;
9914;SDS011;4996;48.746;9.174;2023-02-24T13:17:29;19.77;;;6.83;;
9914;SDS011;4996;48.746;9.174;2023-02-24T13:19:55;14.40;;;7.60;;
9914;SDS011;4996;48.746;9.174;2023-02-24T13:22:25;15.07;;;6.60;;
9914;SDS011;4996;48.746;9.174;2023-02-24T13:24:57;14.43;;;7.10;;
9914;SDS011;4996;48.746;9.174;2023-02-24T13:27:33;20.43;;;6.90;;
9914;SDS011;4996;48.746;9.174;2023-02-24T13:30:03;13.23;;;6.07;;
9914;SDS011;4996;48.746;9.174;2023-02-24T13:32:36;23.77;;;7.23;;
9914;SDS011;4996;48.746;9.174;2023-02-24T13:37:45;16.60;;;7.70;;
9914;SDS011;4996;48.746;9.174;2023-02-24T13:42:54;20.43;;;6.30;;
9914;SDS011;4996;48.746;9.174;2023-02-24T13:45:19;19.73;;;6.53;;
9914;SDS011;4996;48.746;9.174;2023-02-24T13:56:35;14.13;;;5.63;;
9914;SDS011;4996;48.746;9.174;2023-02-24T14:02:01;14.63;;;6.70;;
9914;SDS011;4996;48.746;9.174;2023-02-24T14:04:32;12.30;;;5.03;;
9914;SDS011;4996;48.746;9.174;2023-02-24T14:07:04;16.10;;;6.23;;
9914;SDS011;4996;48.746;9.174;2023-02-24T14:09:53;12.53;;;6.37;;
9914;SDS011;4996;48.746;9.174;2023-02-24T14:12:24;11.87;;;5.03;;
9914;SDS011;4996;48.746;9.174;2023-02-24T14:14:52;7.10;;;4.00;;
9914;SDS011;4996;48.746;9.174;2023-02-24T14:17:23;12.87;;;5.80;;
9914;SDS011;4996;48.746;9.174;2023-02-24T14:22:33;17.23;;;5.50;;
9914;SDS011;4996;48.746;9.174;2023-02-24T14:25:06;11.33;;;5.10;;
9914;SDS011;4996;48.746;9.174;2023-02-24T14:27:35;17.63;;;5.37;;
9914;SDS011;4996;48.746;9.174;2023-02-24T14:30:02;12.47;;;5.07;;
9914;SDS011;4996;48.746;9.174;2023-02-24T14:32:28;15.60;;;6.53;;
9914;SDS011;4996;48.746;9.174;2023-02-24T14:34:56;10.73;;;4.90;;
9914;SDS011;4996;48.746;9.174;2023-02-24T14:37:26;10.20;;;5.20;;
9914;SDS011;4996;48.746;9.174;2023-02-24T14:39:55;14.70;;;5.90;;
9914;SDS011;4996;48.746;9.174;2023-02-24T14:42:22;13.40;;;5.80;;
9914;SDS011;4996;48.746;9.174;2023-02-24T14:44:50;14.60;;;5.80;;
9914;SDS011;4996;48.746;9.174;2023-02-24T14:47:18;13.40;;;6.80;;
9914;SDS011;4996;48.746;9.174;2023-02-24T14:49:59;16.70;;;6.53;;
9914;SDS011;4996;48.746;9.174;2023-02-24T14:55:09;19.90;;;9.20;;
9914;SDS011;4996;48.746;9.174;2023-02-24T14:57:39;40.13;;;17.50;;
9914;SDS011;4996;48.746;9.174;2023-02-24T15:00:13;14.40;;;6.63;;
9914;SDS011;4996;48.746;9.174;2023-02-24T15:02:46;12.37;;;5.30;;
9914;SDS011;4996;48.746;9.174;2023-02-24T15:05:33;10.83;;;6.30;;
9914;SDS011;4996;48.746;9.174;2023-02-24T15:08:04;12.13;;;6.60;;
9914;SDS011;4996;48.746;9.174;2023-02-24T15:10:50;16.97;;;5.90;;
9914;SDS011;4996;48.746;9.174;2023-02-24T15:13:20;13.90;;;5.90;;
9914;SDS011;4996;48.746;9.174;2023-02-24T15:16:01;13.23;;;5.20;;
9914;SDS011;4996;48.746;9.174;2023-02-24T15:18:34;18.83;;;5.83;;
9914;SDS011;4996;48.746;9.174;2023-02-24T15:21:01;18.63;;;5.60;;
9914;SDS011;4996;48.746;9.174;2023-02-24T15:23:30;11.53;;;6.10;;
9914;SDS011;4996;48.746;9.174;2023-02-24T15:25:57;13.63;;;5.40;;
9914;SDS011;4996;48.746;9.174;2023-02-24T15:28:30;9.73;;;5.50;;
9914;SDS011;4996;48.746;9.174;2023-02-24T15:30:58;11.50;;;5.57;;
9914;SDS011;4996;48.746;9.174;2023-02-24T15:33:41;11.30;;;5.43;;
9914;SDS011;4996;48.746;9.174;2023-02-24T15:36:17;12.37;;;6.00;;
9914;SDS011;4996;48.746;9.174;2023-02-24T15:38:51;16.80;;;6.20;;
9914;SDS011;4996;48.746;9.174;2023-02-24T15:41:20;15.87;;;6.10;;
9914;SDS011;4996;48.746;9.174;2023-02-24T15:43:47;9.50;;;5.00;;
9914;SDS011;4996;48.746;9.174;2023-02-24T15:46:30;19.93;;;6.30;;
9914;SDS011;4996;48.746;9.174;2023-02-24T15:48:56;7.47;;;4.50;;
9914;SDS011;4996;48.746;9.174;2023-02-24T15:51:29;13.20;;;4.87;;
9914;SDS011;4996;48.746;9.174;2023-02-24T15:53:55;13.30;;;5.50;;
9914;SDS011;4996;48.746;9.174;2023-02-24T15:56:21;29.93;;;6.30;;
9914;SDS011;4996;48.746;9.174;2023-02-24T15:58:47;12.87;;;6.63;;
9914;SDS011;4996;48.746;9.174;2023-02-24T16:01:12;10.07;;;5.63;;
9914;SDS011;4996;48.746;9.174;2023-02-24T16:03:38;11.30;;;5.30;;
9914;SDS011;4996;48.746;9.174;2023-02-24T16:06:04;9.63;;;5.87;;
9914;SDS011;4996;48.746;9.174;2023-02-24T16:08:31;10.93;;;6.47;;
9914;SDS011;4996;48.746;9.174;2023-02-24T16:10:57;10.23;;;5.57;;
9914;SDS011;4996;48.746;9.174;2023-02-24T16:13:24;14.10;;;7.23;;
9914;SDS011;4996;48.746;9.174;2023-02-24T16:15:50;17.83;;;6.77;;
9914;SDS011;4996;48.746;9.174;2023-02-24T16:18:18;16.03;;;6.57;;
9914;SDS011;4996;48.746;9.174;2023-02-24T16:20:46;13.97;;;7.70;;
9914;SDS011;4996;48.746;9.174;2023-02-24T16:23:21;9.63;;;6.87;;
9914;SDS011;4996;48.746;9.174;2023-02-24T16:25:49;18.43;;;7.33;;
9914;SDS011;4996;48.746;9.174;2023-02-24T16:28:18;14.43;;;7.73;;
9914;SDS011;4996;48.746;9.174;2023-02-24T16:30:45;15.93;;;7.90;;
9914;SDS011;4996;48.746;9.174;2023-02-24T16:33:12;19.40;;;7.63;;
9914;SDS011;4996;48.746;9.174;2023-02-24T16:35:39;12.17;;;5.10;;
9914;SDS011;4996;48.746;9.174;2023-02-24T16:38:12;14.83;;;8.63;;
9914;SDS011;4996;48.746;9.174;2023-02-24T16:40:40;17.70;;;8.40;;
9914;SDS011;4996;48.746;9.174;2023-02-24T16:43:07;12.73;;;8.63;;
9914;SDS011;4996;48.746;9.174;2023-02-24T16:45:33;15.77;;;8.67;;
9914;SDS011;4996;48.746;9.174;2023-02-24T16:48:00;19.50;;;7.07;;
9914;SDS011;4996;48.746;9.174;2023-02-24T16:50:32;18.13;;;7.93;;
9914;SDS011;4996;48.746;9.174;2023-02-24T16:53:03;19.43;;;8.27;;
9914;SDS011;4996;48.746;9.174;2023-02-24T16:55:29;18.23;;;9.47;;
9914;SDS011;4996;48.746;9.174;2023-02-24T16:57:55;16.80;;;8.37;;
9914;SDS011;4996;48.746;9.174;2023-02-24T17:00:20;20.83;;;8.70;;
9914;SDS011;4996;48.746;9.174;2023-02-24T17:02:47;19.97;;;9.20;;
9914;SDS011;4996;48.746;9.174;2023-02-24T17:05:21;22.07;;;10.13;;
9914;SDS011;4996;48.746;9.174;2023-02-24T17:07:48;20.10;;;8.07;;
9914;SDS011;4996;48.746;9.174;2023-02-24T17:10:15;19.07;;;9.27;;
9914;SDS011;4996;48.746;9.174;2023-02-24T17:12:41;19.10;;;8.30;;
9914;SDS011;4996;48.746;9.174;2023-02-24T17:15:07;17.93;;;9.13;;
9914;SDS011;4996;48.746;9.174;2023-02-24T17:17:40;18.23;;;9.17;;
9914;SDS011;4996;48.746;9.174;2023-02-24T17:20:06;14.23;;;8.27;;
9914;SDS011;4996;48.746;9.174;2023-02-24T17:22:32;14.97;;;8.90;;